sensor_id;sensor_type;location;lat;lon;timestamp;pressure;altitude;pressure_sealevel;temperature;humidity
33414;BME280;60055;41.884;12.534;2023-04-06T00:01:19;101020.13;;;8.35;67.03
33414;BME280;60055;41.884;12.534;2023-04-06T00:03:45;101019.47;;;8.23;67.50
33414;BME280;60055;41.884;12.534;2023-04-06T00:06:13;101015.94;;;8.25;67.48
33414;BME280;60055;41.884;12.534;2023-04-06T00:08:39;101023.75;;;8.29;66.00
33414;BME280;60055;41.884;12.534;2023-04-06T00:11:04;101027.72;;;8.07;65.72
33414;BME280;60055;41.884;12.534;2023-04-06T00:13:30;101030.63;;;7.93;65.04
33414;BME280;60055;41.884;12.534;2023-04-06T00:15:56;101032.47;;;7.90;64.06
33414;BME280;60055;41.884;12.534;2023-04-06T00:18:22;101034.16;;;7.92;62.98
33414;BME280;60055;41.884;12.534;2023-04-06T00:20:48;101033.06;;;8.02;62.90
33414;BME280;60055;41.884;12.534;2023-04-06T00:23:16;101030.50;;;7.98;62.47
33414;BME280;60055;41.884;12.534;2023-04-06T00:25:44;101040.66;;;8.17;62.23
33414;BME280;60055;41.884;12.534;2023-04-06T00:28:10;101035.81;;;7.96;63.05
33414;BME280;60055;41.884;12.534;2023-04-06T00:30:40;101036.03;;;7.86;62.79
33414;BME280;60055;41.884;12.534;2023-04-06T00:33:06;101032.97;;;8.07;63.04
33414;BME280;60055;41.884;12.534;2023-04-06T00:35:33;101035.09;;;7.88;63.49
33414;BME280;60055;41.884;12.534;2023-04-06T00:38:00;101031.38;;;7.98;61.88
33414;BME280;60055;41.884;12.534;2023-04-06T00:40:28;101029.75;;;7.93;62.20
33414;BME280;60055;41.884;12.534;2023-04-06T00:42:58;101036.47;;;8.07;61.33
33414;BME280;60055;41.884;12.534;2023-04-06T00:45:25;101039.13;;;8.07;60.83
33414;BME280;60055;41.884;12.534;2023-04-06T00:47:51;101027.44;;;8.20;60.54
33414;BME280;60055;41.884;12.534;2023-04-06T00:50:18;101031.81;;;8.20;60.58
33414;BME280;60055;41.884;12.534;2023-04-06T00:52:44;101034.38;;;8.25;60.01
33414;BME280;60055;41.884;12.534;2023-04-06T00:55:12;101032.19;;;8.03;60.69
33414;BME280;60055;41.884;12.534;2023-04-06T00:57:37;101026.78;;;8.09;60.71
33414;BME280;60055;41.884;12.534;2023-04-06T01:00:06;101031.47;;;7.95;61.13
33414;BME280;60055;41.884;12.534;2023-04-06T01:02:32;101037.28;;;8.11;61.18
33414;BME280;60055;41.884;12.534;2023-04-06T01:04:59;101033.72;;;8.12;59.66
33414;BME280;60055;41.884;12.534;2023-04-06T01:07:27;101029.69;;;7.96;58.84
33414;BME280;60055;41.884;12.534;2023-04-06T01:09:54;101033.25;;;7.93;59.66
33414;BME280;60055;41.884;12.534;2023-04-06T01:12:20;101031.22;;;8.07;59.25
33414;BME280;60055;41.884;12.534;2023-04-06T01:14:45;101030.03;;;7.79;60.97
33414;BME280;60055;41.884;12.534;2023-04-06T01:17:12;101035.81;;;7.96;59.99
33414;BME280;60055;41.884;12.534;2023-04-06T01:19:40;101029.25;;;7.74;60.41
33414;BME280;60055;41.884;12.534;2023-04-06T01:22:07;101029.53;;;8.03;60.39
33414;BME280;60055;41.884;12.534;2023-04-06T01:24:34;101022.69;;;7.96;59.86
33414;BME280;60055;41.884;12.534;2023-04-06T01:27:01;101025.09;;;8.07;59.13
33414;BME280;60055;41.884;12.534;2023-04-06T01:29:31;101019.97;;;7.99;59.53
33414;BME280;60055;41.884;12.534;2023-04-06T01:31:57;101019.16;;;7.97;59.75
33414;BME280;60055;41.884;12.534;2023-04-06T01:34:22;101017.28;;;8.04;59.14
33414;BME280;60055;41.884;12.534;2023-04-06T01:36:48;101017.66;;;7.84;61.77
33414;BME280;60055;41.884;12.534;2023-04-06T01:39:13;101014.72;;;7.99;59.72
33414;BME280;60055;41.884;12.534;2023-04-06T01:41:39;101011.81;;;8.11;59.37
33414;BME280;60055;41.884;12.534;2023-04-06T01:44:05;101011.09;;;8.05;60.72
33414;BME280;60055;41.884;12.534;2023-04-06T01:46:31;101006.00;;;7.97;60.94
33414;BME280;60055;41.884;12.534;2023-04-06T01:48:56;101012.16;;;7.96;59.75
33414;BME280;60055;41.884;12.534;2023-04-06T01:51:23;101015.00;;;7.87;59.62
33414;BME280;60055;41.884;12.534;2023-04-06T01:53:51;101013.78;;;7.59;59.90
33414;BME280;60055;41.884;12.534;2023-04-06T01:56:17;101014.69;;;7.58;59.61
33414;BME280;60055;41.884;12.534;2023-04-06T01:58:43;101016.00;;;7.34;60.05
33414;BME280;60055;41.884;12.534;2023-04-06T02:01:10;101015.00;;;7.41;59.84
33414;BME280;60055;41.884;12.534;2023-04-06T02:03:36;101010.84;;;7.30;60.00
33414;BME280;60055;41.884;12.534;2023-04-06T02:06:03;101010.03;;;7.25;60.21
33414;BME280;60055;41.884;12.534;2023-04-06T02:08:30;101006.59;;;7.23;61.02
33414;BME280;60055;41.884;12.534;2023-04-06T02:11:00;101004.75;;;7.28;60.90
33414;BME280;60055;41.884;12.534;2023-04-06T02:13:25;101000.22;;;7.34;60.26
33414;BME280;60055;41.884;12.534;2023-04-06T02:15:52;100999.72;;;7.14;60.97
33414;BME280;60055;41.884;12.534;2023-04-06T02:18:23;100998.03;;;7.11;61.00
33414;BME280;60055;41.884;12.534;2023-04-06T02:20:49;100999.47;;;7.29;60.76
33414;BME280;60055;41.884;12.534;2023-04-06T02:23:16;101004.84;;;7.23;61.17
33414;BME280;60055;41.884;12.534;2023-04-06T02:25:41;101008.59;;;7.08;60.94
33414;BME280;60055;41.884;12.534;2023-04-06T02:28:07;101005.03;;;7.12;60.45
33414;BME280;60055;41.884;12.534;2023-04-06T02:30:34;101002.41;;;7.11;61.99
33414;BME280;60055;41.884;12.534;2023-04-06T02:33:02;101006.09;;;7.01;61.62
33414;BME280;60055;41.884;12.534;2023-04-06T02:35:29;101007.00;;;6.98;61.30
33414;BME280;60055;41.884;12.534;2023-04-06T02:37:56;101004.34;;;7.00;61.10
33414;BME280;60055;41.884;12.534;2023-04-06T02:40:24;100991.84;;;7.14;61.24
33414;BME280;60055;41.884;12.534;2023-04-06T02:42:50;101005.66;;;7.25;60.54
33414;BME280;60055;41.884;12.534;2023-04-06T02:45:16;100993.06;;;6.95;61.07
33414;BME280;60055;41.884;12.534;2023-04-06T02:47:44;100991.13;;;7.06;61.07
33414;BME280;60055;41.884;12.534;2023-04-06T02:50:13;101003.75;;;6.84;61.70
33414;BME280;60055;41.884;12.534;2023-04-06T02:52:41;101000.34;;;6.78;61.79
33414;BME280;60055;41.884;12.534;2023-04-06T02:55:08;100997.75;;;6.76;61.46
33414;BME280;60055;41.884;12.534;2023-04-06T02:57:34;100996.13;;;6.69;61.78
33414;BME280;60055;41.884;12.534;2023-04-06T03:00:03;100990.75;;;6.77;61.65
33414;BME280;60055;41.884;12.534;2023-04-06T03:02:29;100997.94;;;6.64;62.39
33414;BME280;60055;41.884;12.534;2023-04-06T03:04:59;101005.81;;;6.64;62.19
33414;BME280;60055;41.884;12.534;2023-04-06T03:07:24;100999.94;;;6.48;62.64
33414;BME280;60055;41.884;12.534;2023-04-06T03:09:50;100998.22;;;6.46;61.99
33414;BME280;60055;41.884;12.534;2023-04-06T03:12:16;100994.72;;;6.47;61.91
33414;BME280;60055;41.884;12.534;2023-04-06T03:14:44;100999.91;;;6.51;62.56
33414;BME280;60055;41.884;12.534;2023-04-06T03:17:10;101000.88;;;6.43;62.38
33414;BME280;60055;41.884;12.534;2023-04-06T03:19:36;101001.75;;;6.45;62.57
33414;BME280;60055;41.884;12.534;2023-04-06T03:22:01;100998.41;;;6.32;62.63
33414;BME280;60055;41.884;12.534;2023-04-06T03:24:27;100992.59;;;6.13;63.38
33414;BME280;60055;41.884;12.534;2023-04-06T03:26:52;100996.94;;;6.13;63.34
33414;BME280;60055;41.884;12.534;2023-04-06T03:29:18;101002.88;;;6.27;62.56
33414;BME280;60055;41.884;12.534;2023-04-06T03:31:43;101001.19;;;6.23;62.81
33414;BME280;60055;41.884;12.534;2023-04-06T03:34:09;101008.97;;;6.29;64.02
33414;BME280;60055;41.884;12.534;2023-04-06T03:36:34;101002.84;;;6.30;62.67
33414;BME280;60055;41.884;12.534;2023-04-06T03:39:00;101006.34;;;6.29;62.72
33414;BME280;60055;41.884;12.534;2023-04-06T03:41:25;101008.06;;;6.32;62.89
33414;BME280;60055;41.884;12.534;2023-04-06T03:43:52;101012.59;;;6.19;62.57
33414;BME280;60055;41.884;12.534;2023-04-06T03:46:17;101010.84;;;6.20;62.80
33414;BME280;60055;41.884;12.534;2023-04-06T03:48:42;101015.06;;;6.30;62.54
33414;BME280;60055;41.884;12.534;2023-04-06T03:51:08;101017.69;;;6.31;62.95
33414;BME280;60055;41.884;12.534;2023-04-06T03:53:33;101023.13;;;6.16;62.83
33414;BME280;60055;41.884;12.534;2023-04-06T03:55:59;101023.88;;;6.26;62.95
33414;BME280;60055;41.884;12.534;2023-04-06T03:58:24;101029.06;;;6.29;62.52
33414;BME280;60055;41.884;12.534;2023-04-06T04:00:50;101025.50;;;6.34;62.61
33414;BME280;60055;41.884;12.534;2023-04-06T04:03:15;101027.31;;;6.31;62.37
33414;BME280;60055;41.884;12.534;2023-04-06T04:05:43;101036.91;;;6.30;62.30
33414;BME280;60055;41.884;12.534;2023-04-06T04:08:10;101025.66;;;6.24;63.59
33414;BME280;60055;41.884;12.534;2023-04-06T04:10:35;101035.38;;;6.15;63.28
33414;BME280;60055;41.884;12.534;2023-04-06T04:13:01;101034.41;;;6.23;63.11
33414;BME280;60055;41.884;12.534;2023-04-06T04:15:26;101029.94;;;6.31;63.25
33414;BME280;60055;41.884;12.534;2023-04-06T04:17:51;101029.84;;;6.37;62.64
33414;BME280;60055;41.884;12.534;2023-04-06T04:20:17;101028.88;;;6.44;62.49
33414;BME280;60055;41.884;12.534;2023-04-06T04:22:42;101030.50;;;6.51;62.03
33414;BME280;60055;41.884;12.534;2023-04-06T04:25:08;101028.09;;;6.37;62.07
33414;BME280;60055;41.884;12.534;2023-04-06T04:27:34;101033.69;;;6.10;63.24
33414;BME280;60055;41.884;12.534;2023-04-06T04:30:00;101030.91;;;6.22;62.92
33414;BME280;60055;41.884;12.534;2023-04-06T04:32:25;101029.50;;;5.95;63.24
33414;BME280;60055;41.884;12.534;2023-04-06T04:34:53;101025.03;;;6.05;63.32
33414;BME280;60055;41.884;12.534;2023-04-06T04:37:18;101032.09;;;6.00;63.32
33414;BME280;60055;41.884;12.534;2023-04-06T04:39:45;101031.16;;;6.04;63.05
33414;BME280;60055;41.884;12.534;2023-04-06T04:42:10;101027.88;;;5.84;63.53
33414;BME280;60055;41.884;12.534;2023-04-06T04:44:36;101034.75;;;5.97;64.83
33414;BME280;60055;41.884;12.534;2023-04-06T04:47:01;101037.28;;;6.03;63.03
33414;BME280;60055;41.884;12.534;2023-04-06T04:49:26;101033.03;;;5.94;63.22
33414;BME280;60055;41.884;12.534;2023-04-06T04:51:52;101038.41;;;5.79;63.97
33414;BME280;60055;41.884;12.534;2023-04-06T04:54:18;101035.75;;;5.84;63.77
33414;BME280;60055;41.884;12.534;2023-04-06T04:56:44;101038.41;;;5.79;64.04
33414;BME280;60055;41.884;12.534;2023-04-06T04:59:10;101036.50;;;5.95;63.71
33414;BME280;60055;41.884;12.534;2023-04-06T05:01:36;101042.72;;;5.83;63.73
33414;BME280;60055;41.884;12.534;2023-04-06T05:04:01;101039.25;;;5.86;64.01
33414;BME280;60055;41.884;12.534;2023-04-06T05:06:27;101046.88;;;6.04;63.72
33414;BME280;60055;41.884;12.534;2023-04-06T05:08:52;101046.53;;;6.30;63.17
33414;BME280;60055;41.884;12.534;2023-04-06T05:11:17;101041.09;;;7.03;61.08
33414;BME280;60055;41.884;12.534;2023-04-06T05:13:43;101045.69;;;7.39;59.60
33414;BME280;60055;41.884;12.534;2023-04-06T05:16:08;101049.84;;;7.95;57.81
33414;BME280;60055;41.884;12.534;2023-04-06T05:18:34;101049.22;;;8.26;56.67
33414;BME280;60055;41.884;12.534;2023-04-06T05:21:00;101057.97;;;8.67;55.28
33414;BME280;60055;41.884;12.534;2023-04-06T05:23:25;101056.22;;;8.68;54.78
33414;BME280;60055;41.884;12.534;2023-04-06T05:25:51;101063.91;;;8.77;54.82
33414;BME280;60055;41.884;12.534;2023-04-06T05:28:17;101065.81;;;8.31;55.09
33414;BME280;60055;41.884;12.534;2023-04-06T05:30:44;101062.16;;;8.38;54.86
33414;BME280;60055;41.884;12.534;2023-04-06T05:33:10;101064.81;;;8.36;54.85
33414;BME280;60055;41.884;12.534;2023-04-06T05:35:36;101069.94;;;8.44;54.83
33414;BME280;60055;41.884;12.534;2023-04-06T05:38:01;101066.06;;;8.58;54.79
33414;BME280;60055;41.884;12.534;2023-04-06T05:40:27;101059.31;;;8.85;54.13
33414;BME280;60055;41.884;12.534;2023-04-06T05:42:52;101059.44;;;8.79;53.39
33414;BME280;60055;41.884;12.534;2023-04-06T05:45:19;101062.47;;;8.99;53.66
33414;BME280;60055;41.884;12.534;2023-04-06T05:47:46;101052.16;;;8.90;53.40
33414;BME280;60055;41.884;12.534;2023-04-06T05:50:12;101061.03;;;8.86;53.96
33414;BME280;60055;41.884;12.534;2023-04-06T05:52:37;101066.56;;;9.12;53.12
33414;BME280;60055;41.884;12.534;2023-04-06T05:55:03;101060.94;;;8.54;54.15
33414;BME280;60055;41.884;12.534;2023-04-06T05:57:29;101063.16;;;9.07;52.35
33414;BME280;60055;41.884;12.534;2023-04-06T05:59:55;101060.94;;;8.91;52.21
33414;BME280;60055;41.884;12.534;2023-04-06T06:02:21;101060.25;;;8.83;51.91
33414;BME280;60055;41.884;12.534;2023-04-06T06:04:47;101058.06;;;9.00;52.21
33414;BME280;60055;41.884;12.534;2023-04-06T06:07:14;101048.63;;;9.27;52.10
33414;BME280;60055;41.884;12.534;2023-04-06T06:09:40;101059.22;;;9.25;51.81
33414;BME280;60055;41.884;12.534;2023-04-06T06:12:05;101063.16;;;9.43;51.29
33414;BME280;60055;41.884;12.534;2023-04-06T06:14:31;101058.63;;;9.48;50.88
33414;BME280;60055;41.884;12.534;2023-04-06T06:16:56;101056.84;;;9.81;50.25
33414;BME280;60055;41.884;12.534;2023-04-06T06:19:22;101061.72;;;9.94;49.02
33414;BME280;60055;41.884;12.534;2023-04-06T06:21:47;101064.56;;;10.19;48.92
33414;BME280;60055;41.884;12.534;2023-04-06T06:24:13;101068.72;;;9.97;49.20
33414;BME280;60055;41.884;12.534;2023-04-06T06:26:38;101070.53;;;10.25;47.88
33414;BME280;60055;41.884;12.534;2023-04-06T06:29:05;101071.88;;;10.09;48.44
33414;BME280;60055;41.884;12.534;2023-04-06T06:31:35;101064.84;;;10.08;48.13
33414;BME280;60055;41.884;12.534;2023-04-06T06:34:02;101072.69;;;10.42;47.29
33414;BME280;60055;41.884;12.534;2023-04-06T06:36:27;101073.78;;;10.64;46.76
33414;BME280;60055;41.884;12.534;2023-04-06T06:38:53;101078.66;;;10.49;46.28
33414;BME280;60055;41.884;12.534;2023-04-06T06:41:18;101072.19;;;10.59;46.04
33414;BME280;60055;41.884;12.534;2023-04-06T06:43:43;101073.84;;;10.89;45.32
33414;BME280;60055;41.884;12.534;2023-04-06T06:46:09;101084.41;;;10.91;45.50
33414;BME280;60055;41.884;12.534;2023-04-06T06:48:35;101083.44;;;11.19;44.96
33414;BME280;60055;41.884;12.534;2023-04-06T06:51:00;101095.09;;;10.86;45.27
33414;BME280;60055;41.884;12.534;2023-04-06T06:53:26;101087.25;;;11.37;44.70
33414;BME280;60055;41.884;12.534;2023-04-06T06:55:51;101081.19;;;11.60;44.51
33414;BME280;60055;41.884;12.534;2023-04-06T06:58:19;101090.25;;;11.79;44.44
33414;BME280;60055;41.884;12.534;2023-04-06T07:00:45;101079.19;;;11.93;43.54
33414;BME280;60055;41.884;12.534;2023-04-06T07:03:11;101077.97;;;12.26;42.89
33414;BME280;60055;41.884;12.534;2023-04-06T07:05:37;101084.31;;;12.20;42.75
33414;BME280;60055;41.884;12.534;2023-04-06T07:08:02;101087.72;;;12.47;43.01
33414;BME280;60055;41.884;12.534;2023-04-06T07:10:27;101087.50;;;12.53;42.42
33414;BME280;60055;41.884;12.534;2023-04-06T07:12:53;101090.31;;;12.72;41.84
33414;BME280;60055;41.884;12.534;2023-04-06T07:15:18;101086.84;;;12.00;42.55
33414;BME280;60055;41.884;12.534;2023-04-06T07:17:45;101092.91;;;12.27;43.71
33414;BME280;60055;41.884;12.534;2023-04-06T07:20:13;101090.16;;;11.29;44.49
33414;BME280;60055;41.884;12.534;2023-04-06T07:22:39;101089.22;;;11.57;44.24
33414;BME280;60055;41.884;12.534;2023-04-06T07:25:05;101102.25;;;11.37;44.59
33414;BME280;60055;41.884;12.534;2023-04-06T07:27:31;101106.00;;;11.03;45.26
33414;BME280;60055;41.884;12.534;2023-04-06T07:29:56;101102.88;;;11.69;43.65
33414;BME280;60055;41.884;12.534;2023-04-06T07:32:22;101114.28;;;11.98;42.49
33414;BME280;60055;41.884;12.534;2023-04-06T07:34:47;101109.13;;;12.64;41.02
33414;BME280;60055;41.884;12.534;2023-04-06T07:37:14;101109.91;;;13.13;40.50
33414;BME280;60055;41.884;12.534;2023-04-06T07:39:40;101118.13;;;13.05;40.02
33414;BME280;60055;41.884;12.534;2023-04-06T07:42:05;101115.91;;;12.50;40.47
33414;BME280;60055;41.884;12.534;2023-04-06T07:44:31;101111.00;;;12.39;41.44
33414;BME280;60055;41.884;12.534;2023-04-06T07:46:56;101111.84;;;12.63;40.39
33414;BME280;60055;41.884;12.534;2023-04-06T07:49:21;101121.97;;;12.75;40.91
33414;BME280;60055;41.884;12.534;2023-04-06T07:51:48;101116.44;;;12.58;40.59
33414;BME280;60055;41.884;12.534;2023-04-06T07:54:13;101120.81;;;12.82;40.11
33414;BME280;60055;41.884;12.534;2023-04-06T07:56:39;101121.97;;;12.75;40.74
33414;BME280;60055;41.884;12.534;2023-04-06T07:59:04;101119.16;;;13.01;39.83
33414;BME280;60055;41.884;12.534;2023-04-06T08:01:30;101124.75;;;12.72;39.99
33414;BME280;60055;41.884;12.534;2023-04-06T08:03:56;101118.25;;;13.02;39.58
33414;BME280;60055;41.884;12.534;2023-04-06T08:06:22;101113.06;;;12.99;39.17
33414;BME280;60055;41.884;12.534;2023-04-06T08:08:49;101119.22;;;13.23;39.81
33414;BME280;60055;41.884;12.534;2023-04-06T08:11:15;101127.25;;;13.63;39.16
33414;BME280;60055;41.884;12.534;2023-04-06T08:13:40;101120.25;;;13.41;39.24
33414;BME280;60055;41.884;12.534;2023-04-06T08:16:07;101130.56;;;13.48;39.22
33414;BME280;60055;41.884;12.534;2023-04-06T08:18:32;101135.66;;;13.53;38.68
33414;BME280;60055;41.884;12.534;2023-04-06T08:20:58;101136.91;;;13.44;38.84
33414;BME280;60055;41.884;12.534;2023-04-06T08:23:23;101140.06;;;13.10;40.27
33414;BME280;60055;41.884;12.534;2023-04-06T08:25:48;101136.97;;;13.21;40.13
33414;BME280;60055;41.884;12.534;2023-04-06T08:28:15;101144.25;;;13.16;40.42
33414;BME280;60055;41.884;12.534;2023-04-06T08:30:41;101136.78;;;13.25;38.49
33414;BME280;60055;41.884;12.534;2023-04-06T08:33:07;101134.63;;;13.77;37.90
33414;BME280;60055;41.884;12.534;2023-04-06T08:35:33;101129.03;;;13.83;36.96
33414;BME280;60055;41.884;12.534;2023-04-06T08:37:58;101132.50;;;14.05;36.52
33414;BME280;60055;41.884;12.534;2023-04-06T08:40:24;101131.44;;;14.50;35.71
33414;BME280;60055;41.884;12.534;2023-04-06T08:42:52;101138.47;;;13.70;37.30
33414;BME280;60055;41.884;12.534;2023-04-06T08:45:19;101133.47;;;14.23;36.22
33414;BME280;60055;41.884;12.534;2023-04-06T08:47:49;101128.19;;;13.82;36.93
33414;BME280;60055;41.884;12.534;2023-04-06T08:50:16;101132.97;;;14.35;36.24
33414;BME280;60055;41.884;12.534;2023-04-06T08:52:44;101148.16;;;13.71;37.87
33414;BME280;60055;41.884;12.534;2023-04-06T08:55:11;101141.81;;;13.75;37.23
33414;BME280;60055;41.884;12.534;2023-04-06T08:57:38;101139.88;;;13.78;36.60
33414;BME280;60055;41.884;12.534;2023-04-06T09:00:05;101146.16;;;13.76;37.06
33414;BME280;60055;41.884;12.534;2023-04-06T09:02:31;101143.38;;;14.19;35.47
33414;BME280;60055;41.884;12.534;2023-04-06T09:04:58;101143.00;;;14.08;34.77
33414;BME280;60055;41.884;12.534;2023-04-06T09:07:26;101144.50;;;13.73;35.22
33414;BME280;60055;41.884;12.534;2023-04-06T09:09:52;101147.84;;;14.19;35.57
33414;BME280;60055;41.884;12.534;2023-04-06T09:15:01;101147.91;;;13.97;35.20
33414;BME280;60055;41.884;12.534;2023-04-06T09:17:31;101157.00;;;14.12;35.32
33414;BME280;60055;41.884;12.534;2023-04-06T09:19:59;101139.88;;;14.39;33.73
33414;BME280;60055;41.884;12.534;2023-04-06T09:22:25;101137.66;;;14.67;33.70
33414;BME280;60055;41.884;12.534;2023-04-06T09:24:59;101139.88;;;14.19;34.21
33414;BME280;60055;41.884;12.534;2023-04-06T09:27:36;101135.44;;;14.40;33.98
33414;BME280;60055;41.884;12.534;2023-04-06T09:30:09;101141.25;;;14.27;34.56
33414;BME280;60055;41.884;12.534;2023-04-06T09:32:50;101133.28;;;14.07;35.11
33414;BME280;60055;41.884;12.534;2023-04-06T09:35:16;101128.78;;;13.89;35.41
33414;BME280;60055;41.884;12.534;2023-04-06T09:37:43;101129.16;;;14.41;34.57
33414;BME280;60055;41.884;12.534;2023-04-06T09:40:09;101135.34;;;14.21;35.03
33414;BME280;60055;41.884;12.534;2023-04-06T09:42:35;101136.13;;;14.03;35.93
33414;BME280;60055;41.884;12.534;2023-04-06T09:45:02;101132.25;;;14.11;35.61
33414;BME280;60055;41.884;12.534;2023-04-06T09:47:29;101138.47;;;14.10;35.88
33414;BME280;60055;41.884;12.534;2023-04-06T09:49:57;101133.63;;;14.00;35.88
33414;BME280;60055;41.884;12.534;2023-04-06T09:52:27;101128.41;;;13.78;36.84
33414;BME280;60055;41.884;12.534;2023-04-06T09:54:59;101135.91;;;14.09;35.99
33414;BME280;60055;41.884;12.534;2023-04-06T10:00:17;101141.13;;;13.70;35.85
33414;BME280;60055;41.884;12.534;2023-04-06T10:05:46;101130.75;;;14.45;34.24
33414;BME280;60055;41.884;12.534;2023-04-06T10:08:16;101134.47;;;14.79;33.92
33414;BME280;60055;41.884;12.534;2023-04-06T10:10:42;101131.34;;;14.89;33.34
33414;BME280;60055;41.884;12.534;2023-04-06T10:13:09;101128.34;;;15.32;32.92
33414;BME280;60055;41.884;12.534;2023-04-06T10:15:37;101125.69;;;14.96;33.34
33414;BME280;60055;41.884;12.534;2023-04-06T10:18:03;101141.28;;;14.66;33.79
33414;BME280;60055;41.884;12.534;2023-04-06T10:20:55;101136.16;;;14.62;33.62
33414;BME280;60055;41.884;12.534;2023-04-06T10:23:29;101132.09;;;14.35;34.61
33414;BME280;60055;41.884;12.534;2023-04-06T10:25:58;101140.03;;;14.55;33.52
33414;BME280;60055;41.884;12.534;2023-04-06T10:28:24;101138.81;;;14.80;33.32
33414;BME280;60055;41.884;12.534;2023-04-06T10:30:57;101140.53;;;15.19;33.68
33414;BME280;60055;41.884;12.534;2023-04-06T10:33:23;101128.81;;;15.23;33.01
33414;BME280;60055;41.884;12.534;2023-04-06T10:35:48;101133.94;;;15.09;32.87
33414;BME280;60055;41.884;12.534;2023-04-06T10:38:14;101134.78;;;15.09;32.90
33414;BME280;60055;41.884;12.534;2023-04-06T10:40:41;101132.69;;;14.97;32.55
33414;BME280;60055;41.884;12.534;2023-04-06T10:45:40;101126.75;;;14.92;31.91
33414;BME280;60055;41.884;12.534;2023-04-06T10:48:18;101126.31;;;14.64;32.72
33414;BME280;60055;41.884;12.534;2023-04-06T10:50:46;101123.94;;;14.58;32.07
33414;BME280;60055;41.884;12.534;2023-04-06T10:53:24;101134.28;;;14.64;32.22
33414;BME280;60055;41.884;12.534;2023-04-06T10:55:51;101128.69;;;14.89;31.92
33414;BME280;60055;41.884;12.534;2023-04-06T10:58:17;101133.50;;;14.80;33.45
33414;BME280;60055;41.884;12.534;2023-04-06T11:00:48;101129.13;;;15.17;32.50
33414;BME280;60055;41.884;12.534;2023-04-06T11:03:14;101128.34;;;15.32;32.71
33414;BME280;60055;41.884;12.534;2023-04-06T11:05:48;101120.72;;;15.43;35.10
33414;BME280;60055;41.884;12.534;2023-04-06T11:08:24;101122.56;;;15.05;32.24
33414;BME280;60055;41.884;12.534;2023-04-06T11:10:50;101114.25;;;14.94;32.18
33414;BME280;60055;41.884;12.534;2023-04-06T11:13:15;101116.91;;;14.94;31.69
33414;BME280;60055;41.884;12.534;2023-04-06T11:15:41;101114.38;;;14.91;31.32
33414;BME280;60055;41.884;12.534;2023-04-06T11:18:06;101110.28;;;14.84;31.09
33414;BME280;60055;41.884;12.534;2023-04-06T11:20:32;101109.16;;;14.90;29.81
33414;BME280;60055;41.884;12.534;2023-04-06T11:22:57;101112.22;;;14.99;30.05
33414;BME280;60055;41.884;12.534;2023-04-06T11:25:28;101110.03;;;14.90;30.29
33414;BME280;60055;41.884;12.534;2023-04-06T11:27:57;101111.97;;;14.68;31.03
33414;BME280;60055;41.884;12.534;2023-04-06T11:30:23;101102.63;;;14.78;30.04
33414;BME280;60055;41.884;12.534;2023-04-06T11:32:48;101111.59;;;14.75;29.82
33414;BME280;60055;41.884;12.534;2023-04-06T11:35:22;101102.03;;;14.71;30.47
33414;BME280;60055;41.884;12.534;2023-04-06T11:37:50;101105.94;;;14.83;29.18
33414;BME280;60055;41.884;12.534;2023-04-06T11:40:22;101102.06;;;15.07;28.68
33414;BME280;60055;41.884;12.534;2023-04-06T11:42:53;101094.69;;;15.14;31.04
33414;BME280;60055;41.884;12.534;2023-04-06T11:45:19;101087.72;;;15.64;32.60
33414;BME280;60055;41.884;12.534;2023-04-06T11:47:44;101088.97;;;15.92;31.49
33414;BME280;60055;41.884;12.534;2023-04-06T11:50:11;101087.63;;;15.83;28.81
33414;BME280;60055;41.884;12.534;2023-04-06T11:52:38;101085.28;;;15.60;31.43
33414;BME280;60055;41.884;12.534;2023-04-06T11:55:18;101081.09;;;15.89;29.17
33414;BME280;60055;41.884;12.534;2023-04-06T11:57:44;101083.94;;;15.68;28.32
33414;BME280;60055;41.884;12.534;2023-04-06T12:00:11;101069.00;;;15.66;28.10
33414;BME280;60055;41.884;12.534;2023-04-06T12:02:37;101076.72;;;15.36;27.49
33414;BME280;60055;41.884;12.534;2023-04-06T12:05:04;101073.06;;;15.56;27.41
33414;BME280;60055;41.884;12.534;2023-04-06T12:07:30;101076.75;;;15.88;27.12
33414;BME280;60055;41.884;12.534;2023-04-06T12:09:56;101069.75;;;15.85;26.91
33414;BME280;60055;41.884;12.534;2023-04-06T12:12:21;101070.41;;;15.73;27.57
33414;BME280;60055;41.884;12.534;2023-04-06T12:14:47;101070.56;;;15.87;28.28
33414;BME280;60055;41.884;12.534;2023-04-06T12:17:12;101075.19;;;16.16;28.44
33414;BME280;60055;41.884;12.534;2023-04-06T12:19:37;101066.56;;;15.78;27.96
33414;BME280;60055;41.884;12.534;2023-04-06T12:22:03;101061.59;;;16.05;26.94
33414;BME280;60055;41.884;12.534;2023-04-06T12:24:31;101063.06;;;15.61;27.90
33414;BME280;60055;41.884;12.534;2023-04-06T12:26:56;101064.53;;;15.49;27.92
33414;BME280;60055;41.884;12.534;2023-04-06T12:29:24;101060.13;;;15.82;27.75
33414;BME280;60055;41.884;12.534;2023-04-06T12:31:51;101058.66;;;15.60;28.75
33414;BME280;60055;41.884;12.534;2023-04-06T12:34:18;101055.78;;;16.14;28.00
33414;BME280;60055;41.884;12.534;2023-04-06T12:36:43;101059.97;;;16.51;26.81
33414;BME280;60055;41.884;12.534;2023-04-06T12:39:09;101054.75;;;16.65;25.52
33414;BME280;60055;41.884;12.534;2023-04-06T12:41:34;101056.47;;;16.82;27.29
33414;BME280;60055;41.884;12.534;2023-04-06T12:44:05;101049.19;;;16.53;28.65
33414;BME280;60055;41.884;12.534;2023-04-06T12:46:32;101044.75;;;17.00;26.93
33414;BME280;60055;41.884;12.534;2023-04-06T12:49:01;101039.00;;;17.37;27.02
33414;BME280;60055;41.884;12.534;2023-04-06T12:51:28;101038.06;;;16.93;24.27
33414;BME280;60055;41.884;12.534;2023-04-06T12:53:56;101040.16;;;17.33;26.67